createdAt,value
2018-12-18T00:00:46.913Z,2.90
2018-12-18T00:03:21.777Z,2.90
2018-12-18T00:05:56.425Z,2.90
2018-12-18T00:08:30.549Z,2.90
2018-12-18T00:11:04.368Z,2.90
2018-12-18T00:13:38.384Z,3.00
2018-12-18T00:16:13.121Z,3.00
2018-12-18T00:18:47.040Z,2.90
2018-12-18T00:21:21.089Z,2.90
2018-12-18T00:23:55.125Z,2.90
2018-12-18T00:26:29.849Z,2.80
2018-12-18T00:29:03.753Z,2.80
2018-12-18T00:31:37.883Z,2.80
2018-12-18T00:34:11.910Z,3.00
2018-12-18T00:36:45.846Z,3.00
2018-12-18T00:39:19.846Z,2.90
2018-12-18T00:41:56.384Z,2.90
2018-12-18T00:44:26.653Z,2.90
2018-12-18T00:47:00.606Z,2.90
2018-12-18T00:49:34.711Z,2.90
2018-12-18T00:52:10.742Z,2.90
2018-12-18T00:54:44.637Z,2.90
2018-12-18T00:57:18.703Z,2.90
2018-12-18T00:59:52.717Z,2.90
2018-12-18T01:02:27.009Z,2.90
2018-12-18T01:05:01.858Z,2.90
2018-12-18T01:07:36.565Z,2.90
2018-12-18T01:10:10.493Z,2.90
2018-12-18T01:12:46.917Z,2.90
2018-12-18T01:15:21.059Z,2.90
2018-12-18T01:17:55.001Z,2.90
2018-12-18T01:20:29.317Z,2.90
2018-12-18T01:23:04.185Z,2.90
2018-12-18T01:25:34.893Z,2.90
2018-12-18T01:28:08.841Z,2.90
2018-12-18T01:30:42.970Z,2.90
2018-12-18T01:33:17.869Z,2.90
2018-12-18T01:35:51.891Z,2.90
2018-12-18T01:38:26.130Z,3.00
2018-12-18T01:40:56.258Z,3.00
2018-12-18T01:43:30.333Z,2.90
2018-12-18T01:46:05.048Z,2.90
2018-12-18T01:48:38.962Z,3.00
2018-12-18T01:51:12.870Z,3.00
2018-12-18T01:53:46.881Z,3.00
2018-12-18T01:56:20.800Z,3.00
2018-12-18T01:58:54.777Z,3.00
2018-12-18T02:01:28.685Z,3.00
2018-12-18T02:04:05.977Z,3.00
2018-12-18T02:06:38.914Z,3.00
2018-12-18T02:09:13.157Z,3.00
2018-12-18T02:11:49.287Z,3.00
2018-12-18T02:14:23.352Z,3.00
2018-12-18T02:16:54.057Z,2.90
2018-12-18T02:19:28.835Z,3.00
2018-12-18T02:22:03.094Z,2.90
2018-12-18T02:24:37.969Z,3.00
2018-12-18T02:27:12.173Z,3.00
2018-12-18T02:29:46.081Z,3.00
2018-12-18T02:32:20.000Z,3.00
2018-12-18T02:34:53.935Z,3.00
2018-12-18T02:37:28.093Z,3.00
2018-12-18T02:40:02.267Z,3.00
2018-12-18T02:42:34.184Z,3.00
2018-12-18T02:45:08.281Z,3.00
2018-12-18T02:47:43.029Z,3.00
2018-12-18T02:50:17.031Z,3.00
2018-12-18T02:52:51.181Z,3.00
2018-12-18T02:55:25.930Z,3.00
2018-12-18T02:57:59.845Z,3.10
2018-12-18T03:00:34.687Z,3.20
2018-12-18T03:03:10.925Z,3.10
2018-12-18T03:05:45.432Z,3.10
2018-12-18T03:08:20.145Z,3.10
2018-12-18T03:10:54.975Z,3.10
2018-12-18T03:13:29.005Z,3.10
2018-12-18T03:16:03.829Z,3.10
2018-12-18T03:18:38.594Z,3.00
2018-12-18T03:21:13.553Z,3.10
2018-12-18T03:23:47.589Z,3.10
2018-12-18T03:26:22.415Z,3.10
2018-12-18T03:28:53.381Z,3.10
2018-12-18T03:31:29.263Z,3.10
2018-12-18T03:34:04.179Z,3.10
2018-12-18T03:36:38.908Z,3.10
2018-12-18T03:39:12.875Z,3.10
2018-12-18T03:41:48.148Z,3.10
2018-12-18T03:44:22.691Z,3.10
2018-12-18T03:46:56.677Z,3.20
2018-12-18T03:49:31.387Z,3.10
2018-12-18T03:52:06.102Z,3.10
2018-12-18T03:54:40.009Z,3.10
2018-12-18T03:57:13.959Z,3.10
2018-12-18T04:02:22.976Z,3.50
2018-12-18T04:04:53.191Z,3.20
2018-12-18T04:07:28.014Z,3.20
2018-12-18T04:10:02.144Z,3.20
2018-12-18T04:12:36.339Z,3.20
2018-12-18T04:15:11.330Z,3.20
2018-12-18T04:17:45.364Z,3.10
2018-12-18T04:20:19.581Z,3.10
2018-12-18T04:22:53.509Z,3.10
2018-12-18T04:25:27.744Z,3.10
2018-12-18T04:28:02.499Z,3.10
2018-12-18T04:30:37.165Z,3.10
2018-12-18T04:33:11.302Z,3.10
2018-12-18T04:35:46.006Z,3.10
2018-12-18T04:38:20.817Z,3.10
2018-12-18T04:40:51.445Z,3.10
2018-12-18T04:43:25.385Z,3.10
2018-12-18T04:45:59.437Z,3.20
2018-12-18T04:48:33.354Z,3.10
2018-12-18T04:51:03.491Z,3.10
2018-12-18T04:53:38.661Z,3.10
2018-12-18T04:56:12.577Z,3.10
2018-12-18T04:58:47.401Z,3.00
2018-12-18T05:01:21.540Z,3.10
2018-12-18T05:03:56.444Z,3.00
2018-12-18T05:06:30.494Z,3.00
2018-12-18T05:09:05.877Z,3.00
2018-12-18T05:11:42.425Z,3.00
2018-12-18T05:14:16.760Z,3.00
2018-12-18T05:16:50.883Z,3.00
2018-12-18T05:19:24.904Z,3.00
2018-12-18T05:22:00.902Z,3.00
2018-12-18T05:24:34.929Z,3.10
2018-12-18T05:27:08.842Z,3.10
2018-12-18T05:29:39.655Z,3.00
2018-12-18T05:32:15.782Z,3.00
2018-12-18T05:34:56.380Z,3.10
2018-12-18T05:37:21.891Z,3.00
2018-12-18T05:39:55.937Z,3.00
2018-12-18T05:42:31.114Z,3.00
2018-12-18T05:45:05.121Z,3.00
2018-12-18T05:47:39.133Z,3.00
2018-12-18T05:50:13.046Z,2.90
2018-12-18T05:52:49.106Z,3.00
2018-12-18T05:55:23.025Z,3.00
2018-12-18T05:57:57.885Z,3.00
2018-12-18T06:00:31.893Z,3.00
2018-12-18T06:03:05.869Z,3.00
2018-12-18T06:05:36.683Z,3.00
2018-12-18T06:08:10.614Z,2.90
2018-12-18T06:10:44.546Z,2.90
2018-12-18T06:13:14.724Z,2.80
2018-12-18T06:15:48.770Z,2.80
2018-12-18T06:18:22.786Z,2.80
2018-12-18T06:20:56.817Z,2.80
2018-12-18T06:23:32.817Z,2.80
2018-12-18T06:26:07.926Z,2.80
2018-12-18T06:28:41.961Z,2.80
2018-12-18T06:31:16.172Z,2.80
2018-12-18T06:33:51.217Z,2.80
2018-12-18T06:36:25.221Z,2.80
2018-12-18T06:38:59.173Z,2.80
2018-12-18T06:41:30.271Z,2.80
2018-12-18T06:44:05.011Z,2.70
2018-12-18T06:46:39.114Z,2.80
2018-12-18T06:49:13.034Z,2.70
2018-12-18T06:51:48.264Z,2.80
2018-12-18T06:54:23.069Z,2.80
2018-12-18T06:56:56.986Z,2.80
2018-12-18T06:59:30.946Z,2.80
2018-12-18T07:02:05.109Z,2.80
2018-12-18T07:04:39.066Z,2.80
2018-12-18T07:07:13.777Z,2.80
2018-12-18T07:09:47.806Z,2.80
2018-12-18T07:12:23.824Z,2.80
2018-12-18T07:14:57.898Z,2.80
2018-12-18T07:17:31.846Z,2.90
2018-12-18T07:20:06.673Z,2.80
2018-12-18T07:22:43.546Z,2.90
2018-12-18T07:25:14.269Z,2.90
2018-12-18T07:27:48.377Z,2.90
2018-12-18T07:30:22.526Z,2.90
2018-12-18T07:32:56.665Z,2.90
2018-12-18T07:35:31.785Z,2.90
2018-12-18T07:38:05.805Z,2.90
2018-12-18T07:40:40.254Z,2.90
2018-12-18T07:43:15.189Z,2.90
2018-12-18T07:45:49.313Z,3.00
2018-12-18T07:48:24.121Z,3.00
2018-12-18T07:50:59.057Z,3.00
2018-12-18T07:53:33.207Z,3.10
2018-12-18T07:56:07.541Z,3.10
2018-12-18T07:58:41.606Z,3.10
2018-12-18T08:01:16.446Z,3.10
2018-12-18T08:03:51.501Z,3.10
2018-12-18T08:06:25.417Z,3.10
2018-12-18T08:08:59.434Z,3.20
2018-12-18T08:11:33.458Z,3.10
2018-12-18T08:14:08.305Z,3.10
2018-12-18T08:16:43.269Z,3.20
2018-12-18T08:19:13.274Z,3.20
2018-12-18T08:21:47.333Z,3.20
2018-12-18T08:24:21.354Z,3.30
2018-12-18T08:26:55.581Z,3.30
2018-12-18T08:29:29.578Z,3.30
2018-12-18T08:32:04.602Z,3.40
2018-12-18T08:34:39.419Z,3.40
2018-12-18T08:37:15.502Z,3.40
2018-12-18T08:39:49.602Z,3.40
2018-12-18T08:42:23.626Z,3.50
2018-12-18T08:44:57.938Z,3.50
2018-12-18T08:47:32.375Z,3.50
2018-12-18T08:50:06.627Z,3.50
2018-12-18T08:52:41.499Z,3.50
2018-12-18T08:55:16.358Z,3.60
2018-12-18T08:57:50.421Z,3.60
2018-12-18T09:02:59.385Z,3.70
2018-12-18T09:05:33.425Z,3.70
2018-12-18T09:08:07.394Z,3.80
2018-12-18T09:15:53.719Z,4.10
2018-12-18T09:20:58.937Z,4.70
2018-12-18T09:26:04.181Z,5.10
2018-12-18T09:28:39.004Z,5.50
2018-12-18T09:31:14.065Z,5.90
2018-12-18T09:33:48.131Z,6.30
2018-12-18T09:36:22.953Z,6.70
2018-12-18T09:44:16.941Z,7.70
2018-12-18T09:46:51.024Z,7.50
2018-12-18T09:49:21.817Z,7.20
2018-12-18T09:51:56.881Z,6.90
2018-12-18T09:54:31.617Z,6.80
2018-12-18T09:57:08.372Z,6.40
2018-12-18T09:59:42.814Z,6.20
2018-12-18T10:02:16.961Z,6.10
2018-12-18T10:04:50.882Z,5.60
2018-12-18T10:07:24.829Z,5.40
2018-12-18T10:09:58.862Z,5.40
2018-12-18T10:12:39.341Z,5.20
2018-12-18T10:15:13.346Z,5.40
2018-12-18T10:17:47.492Z,5.40
2018-12-18T10:20:22.422Z,5.10
2018-12-18T10:22:56.430Z,5.10
2018-12-18T10:25:31.265Z,5.10
2018-12-18T10:28:05.880Z,5.20
2018-12-18T10:30:40.594Z,5.20
2018-12-18T10:33:14.561Z,5.20
2018-12-18T10:35:48.563Z,5.30
2018-12-18T10:38:22.578Z,5.40
2018-12-18T10:40:56.566Z,5.40
2018-12-18T10:43:30.673Z,5.40
2018-12-18T10:46:04.819Z,5.40
2018-12-18T10:48:38.761Z,5.30
2018-12-18T10:51:12.869Z,5.20
2018-12-18T10:53:48.890Z,4.90
2018-12-18T10:56:23.734Z,4.70
2018-12-18T10:58:58.627Z,4.80
2018-12-18T11:01:39.126Z,4.80
2018-12-18T11:04:13.366Z,4.80
2018-12-18T11:06:47.326Z,4.80
2018-12-18T11:09:18.081Z,4.80
2018-12-18T11:11:53.925Z,4.80
2018-12-18T11:14:28.218Z,4.50
2018-12-18T11:17:02.873Z,4.60
2018-12-18T11:19:37.729Z,4.30
2018-12-18T11:22:12.906Z,4.40
2018-12-18T11:24:46.945Z,4.60
2018-12-18T11:27:20.967Z,4.70
2018-12-18T11:29:55.189Z,4.90
2018-12-18T11:32:33.122Z,5.00
2018-12-18T11:35:07.237Z,5.20
2018-12-18T11:37:41.277Z,5.30
2018-12-18T11:40:11.995Z,5.40
2018-12-18T11:42:48.073Z,5.50
2018-12-18T11:45:18.895Z,5.40
2018-12-18T11:47:53.017Z,5.40
2018-12-18T11:50:27.050Z,5.50
2018-12-18T11:53:02.365Z,5.60
2018-12-18T11:55:36.627Z,5.80
2018-12-18T11:58:10.662Z,5.80
2018-12-18T12:00:44.759Z,6.40
2018-12-18T12:05:53.599Z,7.80
2018-12-18T12:08:28.410Z,8.10
2018-12-18T12:13:37.302Z,7.70
2018-12-18T12:16:12.057Z,7.80
2018-12-18T12:18:42.171Z,7.40
2018-12-18T12:23:52.517Z,6.70
2018-12-18T12:26:33.006Z,7.00
2018-12-18T12:29:07.746Z,7.30
2018-12-18T12:31:43.837Z,7.30
2018-12-18T12:36:52.545Z,7.90
2018-12-18T12:42:03.509Z,7.50
2018-12-18T12:44:38.242Z,7.00
2018-12-18T12:47:12.237Z,6.30
2018-12-18T12:49:46.754Z,6.40
2018-12-18T12:52:20.778Z,6.20
2018-12-18T12:54:54.985Z,5.90
2018-12-18T12:57:28.905Z,5.90
2018-12-18T13:00:03.061Z,5.90
2018-12-18T13:02:37.041Z,5.70
2018-12-18T13:05:07.825Z,5.70
2018-12-18T13:07:41.770Z,5.70
2018-12-18T13:10:16.114Z,5.60
2018-12-18T13:12:46.917Z,5.70
2018-12-18T13:15:20.829Z,5.70
2018-12-18T13:17:55.154Z,6.00
2018-12-18T13:20:29.958Z,6.70
2018-12-18T13:23:05.218Z,7.30
2018-12-18T13:25:39.939Z,8.40
2018-12-18T13:28:14.170Z,8.90
2018-12-18T13:30:48.302Z,9.30
2018-12-18T13:35:57.386Z,10.30
2018-12-18T13:46:06.965Z,11.40
2018-12-18T13:48:42.130Z,11.10
2018-12-18T13:51:16.129Z,10.50
2018-12-18T13:56:25.083Z,9.20
2018-12-18T13:59:00.375Z,8.60
2018-12-18T14:04:09.010Z,7.30
2018-12-18T14:06:49.479Z,6.90
2018-12-18T14:09:20.668Z,6.70
2018-12-18T14:11:55.614Z,6.50
2018-12-18T14:14:26.220Z,6.30
2018-12-18T14:17:00.333Z,6.20
2018-12-18T14:19:34.494Z,6.20
2018-12-18T14:22:09.598Z,6.30
2018-12-18T14:24:44.425Z,6.40
2018-12-18T14:27:15.245Z,6.30
2018-12-18T14:29:49.576Z,6.20
2018-12-18T14:32:23.577Z,6.10
2018-12-18T14:37:32.326Z,5.90
2018-12-18T14:40:07.095Z,5.80
2018-12-18T14:42:43.113Z,5.80
2018-12-18T14:45:17.274Z,5.60
2018-12-18T14:47:51.987Z,5.50
2018-12-18T14:50:27.150Z,5.50
2018-12-18T14:53:01.920Z,5.40
2018-12-18T14:55:35.870Z,5.30
2018-12-18T14:58:10.702Z,5.20
2018-12-18T15:00:44.737Z,5.10
2018-12-18T15:03:19.109Z,4.90
2018-12-18T15:05:53.437Z,4.80
2018-12-18T15:08:27.349Z,4.60
2018-12-18T15:11:01.538Z,4.50
2018-12-18T15:13:35.641Z,4.30
2018-12-18T15:16:09.704Z,4.10
2018-12-18T15:18:44.414Z,4.00
2018-12-18T15:21:18.440Z,3.80
2018-12-18T15:23:53.827Z,3.70
2018-12-18T15:26:27.846Z,3.70
2018-12-18T15:29:01.873Z,3.50
2018-12-18T15:31:35.950Z,3.40
2018-12-18T15:34:06.660Z,3.20
2018-12-18T15:36:41.514Z,3.10
2018-12-18T15:39:15.550Z,3.00
2018-12-18T15:41:49.502Z,2.90
2018-12-18T15:44:23.409Z,2.90
2018-12-18T15:46:57.646Z,2.80
2018-12-18T15:49:31.561Z,2.80
2018-12-18T15:52:06.517Z,2.80
2018-12-18T15:54:41.105Z,2.70
2018-12-18T15:57:15.329Z,2.70
2018-12-18T15:59:49.275Z,2.60
2018-12-18T16:02:24.430Z,2.50
2018-12-18T16:04:59.297Z,2.50
2018-12-18T16:07:34.186Z,2.50
2018-12-18T16:10:09.023Z,2.50
2018-12-18T16:12:44.465Z,2.60
2018-12-18T16:15:19.083Z,2.60
2018-12-18T16:17:49.789Z,2.60
2018-12-18T16:20:24.321Z,2.80
2018-12-18T16:23:00.577Z,2.90
2018-12-18T16:25:34.622Z,3.00
2018-12-18T16:28:09.441Z,3.00
2018-12-18T16:30:44.146Z,3.10
2018-12-18T16:33:18.445Z,3.10
2018-12-18T16:35:53.071Z,3.10
2018-12-18T16:38:27.906Z,3.10
2018-12-18T16:40:58.623Z,3.10
2018-12-18T16:43:32.626Z,3.10
2018-12-18T16:46:06.549Z,3.10
2018-12-18T16:48:41.590Z,3.20
2018-12-18T16:51:15.606Z,3.20
2018-12-18T16:53:51.586Z,3.20
2018-12-18T16:56:26.406Z,3.20
2018-12-18T16:59:00.588Z,3.10
2018-12-18T17:01:34.932Z,3.20
2018-12-18T17:04:09.041Z,3.20
2018-12-18T17:06:43.021Z,3.20
2018-12-18T17:09:16.998Z,3.20
2018-12-18T17:11:52.094Z,3.20
2018-12-18T17:14:26.037Z,3.20
2018-12-18T17:17:00.054Z,3.10
2018-12-18T17:19:34.073Z,3.20
2018-12-18T17:22:08.240Z,3.20
2018-12-18T17:24:42.162Z,3.20
2018-12-18T17:27:16.420Z,3.20
2018-12-18T17:29:50.337Z,3.20
2018-12-18T17:32:25.389Z,3.20
2018-12-18T17:34:59.825Z,3.30
2018-12-18T17:37:36.341Z,3.30
2018-12-18T17:40:10.191Z,3.30
2018-12-18T17:42:45.039Z,3.30
2018-12-18T17:45:19.769Z,3.30
2018-12-18T17:47:53.917Z,3.30
2018-12-18T17:50:28.626Z,3.30
2018-12-18T17:53:03.844Z,3.40
2018-12-18T17:55:37.793Z,3.30
2018-12-18T17:58:12.613Z,3.40
2018-12-18T18:00:47.325Z,3.40
2018-12-18T18:03:23.157Z,3.40
2018-12-18T18:05:57.103Z,3.40
2018-12-18T18:08:31.923Z,3.30
2018-12-18T18:11:06.778Z,3.40
2018-12-18T18:13:37.662Z,3.30
2018-12-18T18:16:08.289Z,3.40
2018-12-18T18:18:42.214Z,3.40
2018-12-18T18:21:16.172Z,3.40
2018-12-18T18:23:51.142Z,3.40
2018-12-18T18:26:25.117Z,3.40
2018-12-18T18:28:59.170Z,3.30
2018-12-18T18:31:33.077Z,3.30
2018-12-18T18:34:07.815Z,3.40
2018-12-18T18:36:42.129Z,3.30
2018-12-18T18:39:16.249Z,3.30
2018-12-18T18:41:50.250Z,3.30
2018-12-18T18:44:24.155Z,3.30
2018-12-18T18:46:58.236Z,3.30
2018-12-18T18:49:32.341Z,3.20
2018-12-18T18:52:07.427Z,3.20
2018-12-18T18:54:43.179Z,3.20
2018-12-18T18:57:17.349Z,3.20
2018-12-18T18:59:51.261Z,3.20
2018-12-18T19:02:25.409Z,3.10
2018-12-18T19:04:59.338Z,3.10
2018-12-18T19:07:34.176Z,3.10
2018-12-18T19:10:08.997Z,3.10
2018-12-18T19:12:44.109Z,3.10
2018-12-18T19:15:18.218Z,3.00
2018-12-18T19:17:52.353Z,3.10
2018-12-18T19:20:26.309Z,3.00
2018-12-18T19:23:03.263Z,3.00
2018-12-18T19:25:38.082Z,3.00
2018-12-18T19:28:12.120Z,3.00
2018-12-18T19:30:46.025Z,2.90
2018-12-18T19:33:21.022Z,2.80
2018-12-18T19:35:55.032Z,2.80
2018-12-18T19:38:29.134Z,2.80
2018-12-18T19:41:03.053Z,2.70
2018-12-18T19:43:39.001Z,2.70
2018-12-18T19:46:13.581Z,2.70
2018-12-18T19:48:47.613Z,2.80
2018-12-18T19:51:18.426Z,2.70
2018-12-18T19:53:49.287Z,2.70
2018-12-18T19:56:23.197Z,2.70
2018-12-18T19:58:57.105Z,2.70
2018-12-18T20:01:31.050Z,2.70
2018-12-18T20:04:05.819Z,2.80
2018-12-18T20:06:36.618Z,2.80
2018-12-18T20:09:10.759Z,2.70
2018-12-18T20:11:41.645Z,2.70
2018-12-18T20:14:15.652Z,2.70
2018-12-18T20:16:49.669Z,2.60
2018-12-18T20:21:58.597Z,2.50
2018-12-18T20:24:33.438Z,2.60
2018-12-18T20:27:08.145Z,2.60
2018-12-18T20:29:42.487Z,2.70
2018-12-18T20:32:17.579Z,2.60
2018-12-18T20:34:52.194Z,2.60
2018-12-18T20:37:22.586Z,2.60
2018-12-18T20:39:56.611Z,2.60
2018-12-18T20:42:31.905Z,2.50
2018-12-18T20:45:06.727Z,2.50
2018-12-18T20:47:41.562Z,2.50
2018-12-18T20:50:15.690Z,2.50
2018-12-18T20:52:50.409Z,2.50
2018-12-18T20:55:24.371Z,2.50
2018-12-18T20:57:58.405Z,2.40
2018-12-18T21:00:32.471Z,2.50
2018-12-18T21:03:06.441Z,2.50
2018-12-18T21:05:40.502Z,2.50
2018-12-18T21:08:14.410Z,2.40
2018-12-18T21:10:49.179Z,2.40
2018-12-18T21:13:27.890Z,2.40
2018-12-18T21:16:03.274Z,2.40
2018-12-18T21:18:38.189Z,2.40
2018-12-18T21:21:15.349Z,2.40
2018-12-18T21:23:48.719Z,2.40
2018-12-18T21:26:23.031Z,2.40
2018-12-18T21:28:56.942Z,2.40
2018-12-18T21:31:31.381Z,2.40
2018-12-18T21:34:06.239Z,2.40
2018-12-18T21:36:40.357Z,2.30
2018-12-18T21:39:15.085Z,2.30
2018-12-18T21:41:49.406Z,2.30
2018-12-18T21:44:24.022Z,2.30
2018-12-18T21:46:58.447Z,2.20
2018-12-18T21:49:33.457Z,2.10
2018-12-18T22:17:36.342Z,1.20
2018-12-18T22:20:10.561Z,1.10
2018-12-18T22:22:44.774Z,1.00
2018-12-18T22:30:29.025Z,0.80
2018-12-18T22:33:02.962Z,0.80
2018-12-18T22:38:07.769Z,0.60
2018-12-18T22:43:12.662Z,0.50
2018-12-18T22:45:43.374Z,0.50
2018-12-18T22:48:17.423Z,0.50
2018-12-18T22:50:51.342Z,0.40
2018-12-18T22:53:25.319Z,0.40
2018-12-18T22:55:59.326Z,0.40
2018-12-18T22:58:33.381Z,0.40
2018-12-18T23:01:13.873Z,0.40
2018-12-18T23:03:50.059Z,0.40
2018-12-18T23:06:24.849Z,0.40
2018-12-18T23:08:59.088Z,0.40
2018-12-18T23:11:32.985Z,0.40
2018-12-18T23:14:07.019Z,0.30
2018-12-18T23:16:41.050Z,0.30
2018-12-18T23:19:14.965Z,0.30
2018-12-18T23:21:48.931Z,0.30
2018-12-18T23:24:23.670Z,0.20
2018-12-18T23:26:57.782Z,0.20
2018-12-18T23:29:32.010Z,0.20
2018-12-18T23:32:03.746Z,0.20
2018-12-18T23:34:38.586Z,0.10
2018-12-18T23:37:12.506Z,0.10
2018-12-18T23:39:47.235Z,0.10
2018-12-18T23:42:22.140Z,0.10
2018-12-18T23:44:56.058Z,0.10
2018-12-18T23:47:30.274Z,0.10
2018-12-18T23:52:37.469Z,0.00
2018-12-18T23:55:08.273Z,0.00
2018-12-18T23:57:42.997Z,0.00
